Terminal Aerodrome Forecast
Issued by NWS Wilmington, OH

Current Version | Previous Version | Graphics & Text | Print | Product List | Glossary On
Versions: 1 2 3 4 5 6 7 8 9 10 11 12 13 14 15 16 17 18 19 20 21 22 23 24 25 26 27 28 29 30 31 32 33 34 35 36 37 38 39
000
FTUS41 KILN 291130
TAFCVG
TAF
KCVG 291130Z 2912/3018 25005KT 3SM BR SCT009 OVC012
      TEMPO 2912/2914 BKN009
     FM291400 29006KT 5SM BR BKN015
     FM291600 30008KT P6SM BKN035
     FM300000 05005KT P6SM SCT035 BKN120
     FM300900 09008KT P6SM VCSH BKN060
     FM301300 10008KT 4SM -SHRA OVC035=

USA.gov is the U.S. government's official web portal to all federal, state and local government web resources and services.